Pyatt, Arkansas
Current Conditions -  °F | °C
As of 4:35 AM on Saturday 20 Dec 2014 (Local Time) from KFLP Reporting Station
Overcast Overcast  
Wind Chill: 36°   Ceiling: 400
Heat Index: 36°   Visibility: 3mi
Dew Point: 32°   Wind: 3mph
Humidity: 87%   Direction: 90°E
Pressure: 30.21"   Gusts: NA
Location:  36.25°N, 92.84°W
Report Text: KFLP 201035Z 09003KT 3SM OVC004 02/00 A3021 RMK AO1
Loading
Personal Weather Stations






























Interactive Weather Map New forecast layout! Learn more

10-Day Weather Forecast

Advertisements
Track Severe Weather on mobile